createdAt,value
2018-09-22T00:02:27.413Z,13.2
2018-09-22T00:07:27.220Z,13.2
2018-09-22T00:12:27.731Z,13.1
2018-09-22T00:17:27.468Z,13.1
2018-09-22T00:22:27.744Z,13.1
2018-09-22T00:27:28.181Z,13.0
2018-09-22T00:32:27.615Z,13.0
2018-09-22T00:37:27.954Z,13.0
2018-09-22T00:42:27.796Z,13.0
2018-09-22T00:47:26.749Z,12.9
2018-09-22T00:52:27.086Z,12.9
2018-09-22T00:57:27.528Z,12.8
2018-09-22T01:02:27.897Z,12.8
2018-09-22T01:07:27.875Z,12.8
2018-09-22T01:12:27.458Z,12.7
2018-09-22T01:17:27.148Z,12.7
2018-09-22T01:22:27.425Z,12.6
2018-09-22T01:27:26.688Z,12.7
2018-09-22T01:32:27.661Z,12.6
2018-09-22T01:37:27.312Z,12.6
2018-09-22T01:42:26.975Z,12.5
2018-09-22T01:47:27.946Z,12.6
2018-09-22T01:52:27.281Z,12.5
2018-09-22T01:57:28.119Z,12.5
2018-09-22T02:02:27.287Z,12.5
2018-09-22T02:07:27.969Z,12.5
2018-09-22T02:12:27.363Z,12.4
2018-09-22T02:17:27.789Z,12.4
2018-09-22T02:22:27.689Z,12.3
2018-09-22T02:27:26.516Z,12.3
2018-09-22T02:32:27.435Z,12.3
2018-09-22T02:37:27.774Z,12.2
2018-09-22T02:42:27.044Z,12.3
2018-09-22T02:47:27.063Z,12.2
2018-09-22T02:52:27.444Z,12.2
2018-09-22T02:57:27.298Z,12.2
2018-09-22T03:02:27.216Z,12.2
2018-09-22T03:07:28.300Z,12.2
2018-09-22T03:12:27.208Z,12.2
2018-09-22T03:17:27.517Z,12.2
2018-09-22T03:22:27.768Z,12.2
2018-09-22T03:27:27.904Z,12.2
2018-09-22T03:32:27.358Z,12.2
2018-09-22T03:37:26.861Z,12.2
2018-09-22T03:42:27.081Z,12.2
2018-09-22T03:47:27.260Z,12.3
2018-09-22T03:52:27.315Z,12.2
2018-09-22T03:57:27.565Z,12.3
2018-09-22T04:02:28.357Z,12.3
2018-09-22T04:07:27.692Z,12.3
2018-09-22T04:12:27.054Z,12.2
2018-09-22T04:17:28.165Z,12.3
2018-09-22T04:22:27.819Z,12.4
2018-09-22T04:27:28.056Z,12.5
2018-09-22T04:32:27.998Z,12.4
2018-09-22T04:37:27.799Z,12.5
2018-09-22T04:42:27.568Z,12.5
2018-09-22T04:47:28.270Z,12.5
2018-09-22T04:52:27.872Z,12.5
2018-09-22T04:57:27.374Z,12.4
2018-09-22T05:02:27.704Z,12.4
2018-09-22T05:07:27.543Z,12.2
2018-09-22T05:12:27.870Z,12.2
2018-09-22T05:17:28.685Z,11.9
2018-09-22T05:22:27.959Z,11.8
2018-09-22T05:27:27.749Z,11.7
2018-09-22T05:32:27.968Z,11.6
2018-09-22T05:37:29.323Z,11.4
2018-09-22T05:42:28.272Z,11.4
2018-09-22T05:47:27.593Z,11.4
2018-09-22T05:52:27.960Z,11.4
2018-09-22T05:57:27.979Z,11.5
2018-09-22T06:02:26.932Z,11.8
2018-09-22T06:07:28.182Z,11.8
2018-09-22T06:12:27.764Z,12.0
2018-09-22T06:17:28.677Z,12.0
2018-09-22T06:22:28.444Z,12.3
2018-09-22T06:27:27.654Z,12.2
2018-09-22T06:32:28.181Z,12.4
2018-09-22T06:37:28.545Z,12.7
2018-09-22T06:42:27.209Z,12.9
2018-09-22T06:47:27.524Z,13.0
2018-09-22T06:52:27.988Z,13.1
2018-09-22T06:57:28.327Z,13.8
2018-09-22T07:02:27.728Z,13.8
2018-09-22T07:07:28.446Z,14.3
2018-09-22T07:12:28.024Z,14.6
2018-09-22T07:17:28.169Z,14.8
2018-09-22T07:22:27.563Z,14.8
2018-09-22T07:27:28.431Z,14.7
2018-09-22T07:32:27.416Z,15.0
2018-09-22T07:37:27.699Z,15.2
2018-09-22T07:42:27.965Z,15.2
2018-09-22T07:47:28.002Z,15.2
2018-09-22T07:52:27.787Z,15.3
2018-09-22T07:57:28.165Z,15.5
2018-09-22T08:02:27.949Z,15.9
2018-09-22T08:07:28.244Z,16.2
2018-09-22T08:12:27.401Z,16.5
2018-09-22T08:17:28.460Z,17.0
2018-09-22T08:22:26.939Z,17.1
2018-09-22T08:27:27.965Z,17.1
2018-09-22T08:32:27.578Z,17.1
2018-09-22T08:37:28.260Z,17.2
2018-09-22T08:42:28.062Z,17.2
2018-09-22T08:47:27.973Z,17.4
2018-09-22T08:52:28.084Z,17.5
2018-09-22T08:57:27.942Z,17.7
2018-09-22T09:02:28.017Z,17.7
2018-09-22T09:07:28.452Z,18.1
2018-09-22T09:12:27.788Z,18.0
2018-09-22T09:17:27.609Z,18.3
2018-09-22T09:22:28.010Z,18.5
2018-09-22T09:27:27.859Z,18.8
2018-09-22T09:32:27.758Z,18.9
2018-09-22T09:37:27.679Z,18.9
2018-09-22T09:42:27.737Z,19.2
2018-09-22T09:47:28.689Z,19.4
2018-09-22T09:52:27.659Z,19.3
2018-09-22T09:57:27.875Z,19.3
2018-09-22T10:02:28.281Z,19.5
2018-09-22T10:07:27.993Z,20.2
2018-09-22T10:12:28.212Z,20.1
2018-09-22T10:17:27.675Z,20.3
2018-09-22T10:22:28.209Z,20.3
2018-09-22T10:27:28.578Z,20.9
2018-09-22T10:32:28.508Z,21.6
2018-09-22T10:37:28.462Z,21.7
2018-09-22T10:42:27.476Z,21.7
2018-09-22T10:47:28.743Z,21.2
2018-09-22T10:52:28.573Z,20.8
2018-09-22T10:57:27.504Z,21.0
2018-09-22T11:02:29.460Z,21.1
2018-09-22T11:07:27.920Z,20.6
2018-09-22T11:12:27.609Z,20.7
2018-09-22T11:17:28.208Z,21.1
2018-09-22T11:22:28.355Z,21.7
2018-09-22T11:27:28.337Z,21.6
2018-09-22T11:32:28.438Z,21.6
2018-09-22T11:37:27.866Z,21.8
2018-09-22T11:42:27.494Z,21.7
2018-09-22T11:47:27.787Z,21.6
2018-09-22T11:52:27.972Z,21.2
2018-09-22T11:57:28.639Z,21.5
2018-09-22T12:02:28.796Z,22.3
2018-09-22T12:07:28.222Z,22.3
2018-09-22T12:12:28.012Z,22.1
2018-09-22T12:17:29.031Z,22.1
2018-09-22T12:22:27.594Z,22.9
2018-09-22T12:27:28.107Z,23.7
2018-09-22T12:32:27.781Z,23.5
2018-09-22T12:37:28.168Z,23.2
2018-09-22T12:42:27.515Z,23.0
2018-09-22T12:47:27.839Z,22.9
2018-09-22T12:52:27.322Z,23.2
2018-09-22T12:57:28.103Z,23.1
2018-09-22T13:02:28.192Z,22.7
2018-09-22T13:07:28.905Z,22.8
2018-09-22T13:12:28.137Z,22.9
2018-09-22T13:17:29.129Z,23.1
2018-09-22T13:22:26.954Z,23.0
2018-09-22T13:27:28.071Z,23.1
2018-09-22T13:32:28.822Z,23.1
2018-09-22T13:37:27.476Z,23.6
2018-09-22T13:42:28.603Z,23.7
2018-09-22T13:47:27.579Z,23.6
2018-09-22T13:52:28.469Z,24.2
2018-09-22T13:57:28.527Z,24.6
2018-09-22T14:02:28.495Z,24.4
2018-09-22T14:07:28.836Z,24.3
2018-09-22T14:12:27.519Z,24.3
2018-09-22T14:17:28.621Z,24.9
2018-09-22T14:22:27.450Z,25.4
2018-09-22T14:27:27.974Z,25.6
2018-09-22T14:32:27.600Z,26.3
2018-09-22T14:37:27.557Z,28.4
2018-09-22T14:42:27.889Z,27.4
2018-09-22T14:47:27.572Z,28.2
2018-09-22T14:52:27.557Z,27.4
2018-09-22T14:57:27.732Z,25.0
2018-09-22T15:02:28.026Z,23.5
2018-09-22T15:07:27.904Z,22.7
2018-09-22T15:12:27.715Z,22.1
2018-09-22T15:17:29.041Z,22.0
2018-09-22T15:22:27.964Z,21.7
2018-09-22T15:27:28.913Z,21.4
2018-09-22T15:32:27.555Z,21.3
2018-09-22T15:37:28.206Z,21.0
2018-09-22T15:42:27.715Z,20.5
2018-09-22T15:47:27.705Z,19.7
2018-09-22T15:52:29.513Z,19.6
2018-09-22T15:57:28.033Z,19.2
2018-09-22T16:02:27.482Z,19.1
2018-09-22T16:07:28.565Z,18.7
2018-09-22T16:12:28.273Z,18.7
2018-09-22T16:17:29.093Z,18.6
2018-09-22T16:22:27.657Z,18.5
2018-09-22T16:27:29.086Z,18.4
2018-09-22T16:32:27.593Z,18.2
2018-09-22T16:37:28.363Z,18.2
2018-09-22T16:42:28.879Z,18.1
2018-09-22T16:47:28.475Z,18.1
2018-09-22T16:52:27.471Z,17.9
2018-09-22T16:57:27.664Z,17.9
2018-09-22T17:02:28.100Z,17.9
2018-09-22T17:07:28.110Z,17.8
2018-09-22T17:12:27.892Z,17.8
2018-09-22T17:17:27.710Z,17.7
2018-09-22T17:22:27.517Z,17.5
2018-09-22T17:27:27.895Z,17.5
2018-09-22T17:32:27.922Z,17.5
2018-09-22T17:37:28.153Z,17.5
2018-09-22T17:42:27.653Z,17.5
2018-09-22T17:47:27.540Z,17.5
2018-09-22T17:52:27.938Z,17.4
2018-09-22T17:57:27.567Z,17.3
2018-09-22T18:02:27.790Z,17.3
2018-09-22T18:07:28.306Z,17.1
2018-09-22T18:12:27.540Z,17.2
2018-09-22T18:17:28.106Z,17.2
2018-09-22T18:22:27.903Z,17.3
2018-09-22T18:27:27.836Z,17.2
2018-09-22T18:32:27.980Z,17.2
2018-09-22T18:37:27.548Z,17.1
2018-09-22T18:42:27.422Z,17.0
2018-09-22T18:47:27.653Z,16.9
2018-09-22T18:52:26.946Z,16.7
2018-09-22T18:57:27.586Z,16.7
2018-09-22T19:02:27.493Z,16.7
2018-09-22T19:07:27.971Z,16.6
2018-09-22T19:12:27.161Z,16.5
2018-09-22T19:17:27.126Z,16.4
2018-09-22T19:22:29.279Z,16.3
2018-09-22T19:27:27.117Z,16.2
2018-09-22T19:32:28.709Z,16.1
2018-09-22T19:37:27.159Z,15.9
2018-09-22T19:42:27.227Z,15.7
2018-09-22T19:47:27.790Z,15.5
2018-09-22T19:52:26.921Z,15.4
2018-09-22T19:57:27.377Z,15.4
2018-09-22T20:02:27.274Z,15.4
2018-09-22T20:07:27.706Z,15.2
2018-09-22T20:12:28.049Z,15.1
2018-09-22T20:17:27.331Z,15.0
2018-09-22T20:22:27.168Z,15.0
2018-09-22T20:27:27.417Z,14.9
2018-09-22T20:32:27.011Z,14.9
2018-09-22T20:37:27.554Z,15.1
2018-09-22T20:42:28.068Z,15.1
2018-09-22T20:47:26.971Z,15.2
2018-09-22T20:52:26.820Z,15.2
2018-09-22T20:57:27.451Z,15.2
2018-09-22T21:02:27.338Z,15.1
2018-09-22T21:07:27.937Z,15.1
2018-09-22T21:12:27.661Z,15.2
2018-09-22T21:17:27.108Z,15.1
2018-09-22T21:22:27.717Z,15.0
2018-09-22T21:27:27.713Z,14.9
2018-09-22T21:32:26.738Z,14.9
2018-09-22T21:37:27.856Z,14.7
2018-09-22T21:42:27.781Z,14.6
2018-09-22T21:47:27.380Z,14.4
2018-09-22T21:52:27.423Z,14.3
2018-09-22T21:57:27.587Z,14.4
2018-09-22T22:02:27.227Z,14.5
2018-09-22T22:07:27.739Z,14.5
2018-09-22T22:12:27.329Z,14.5
2018-09-22T22:22:46.404Z,14.3
2018-09-22T22:27:45.102Z,14.3
2018-09-22T22:32:46.578Z,14.4
2018-09-22T22:37:45.513Z,14.3
2018-09-22T22:42:44.667Z,14.3
2018-09-22T22:47:45.269Z,14.3
2018-09-22T22:52:45.507Z,14.3
2018-09-22T22:57:44.869Z,14.5
2018-09-22T23:02:44.533Z,14.5
2018-09-22T23:07:45.325Z,14.6
2018-09-22T23:12:28.082Z,14.5
2018-09-22T23:17:27.815Z,14.6
2018-09-22T23:22:27.442Z,14.7
2018-09-22T23:27:27.804Z,14.7
2018-09-22T23:32:27.665Z,14.8
2018-09-22T23:37:27.734Z,14.8
2018-09-22T23:42:27.740Z,14.8
2018-09-22T23:47:27.857Z,14.7
2018-09-22T23:52:27.862Z,14.5
2018-09-22T23:57:27.437Z,14.5
